createdAt,value
2024-03-06T00:01:48.385Z,101068.75
2024-03-06T00:04:20.134Z,101074.81
2024-03-06T00:06:48.290Z,101079.09
2024-03-06T00:09:16.233Z,101086.88
2024-03-06T00:11:44.334Z,101071.28
2024-03-06T00:14:13.645Z,101079.97
2024-03-06T00:16:44.723Z,101079.09
2024-03-06T00:19:12.941Z,101078.22
2024-03-06T00:21:40.769Z,101087.78
2024-03-06T00:24:09.116Z,101090.38
2024-03-06T00:26:37.006Z,101085.16
2024-03-06T00:29:04.895Z,101089.50
2024-03-06T00:31:33.376Z,101088.63
2024-03-06T00:34:02.642Z,101097.25
2024-03-06T00:36:30.856Z,101104.22
2024-03-06T00:38:58.742Z,101108.59
2024-03-06T00:41:26.580Z,101100.78
2024-03-06T00:43:54.456Z,101107.72
2024-03-06T00:46:22.342Z,101104.25
2024-03-06T00:48:50.196Z,101109.41
2024-03-06T00:51:22.456Z,101116.34
2024-03-06T00:53:52.349Z,101110.28
2024-03-06T00:56:20.348Z,101118.97
2024-03-06T00:58:48.320Z,101123.25
2024-03-06T01:01:17.815Z,101126.72
2024-03-06T01:03:45.675Z,101122.38
2024-03-06T01:06:13.644Z,101140.53
2024-03-06T01:08:43.439Z,101139.66
2024-03-06T01:11:15.496Z,101141.38
2024-03-06T01:13:43.461Z,101144.88
2024-03-06T01:16:11.404Z,101156.09
2024-03-06T01:18:39.355Z,101143.09
2024-03-06T01:21:07.234Z,101148.28
2024-03-06T01:23:35.090Z,101144.75
2024-03-06T01:26:04.480Z,101144.75
2024-03-06T01:28:32.433Z,101152.56
2024-03-06T01:31:00.600Z,101150.78
2024-03-06T01:33:28.507Z,101152.47
2024-03-06T01:35:56.448Z,101145.56
2024-03-06T01:38:24.290Z,101148.09
2024-03-06T01:40:52.211Z,101157.63
2024-03-06T01:43:26.682Z,101165.44
2024-03-06T01:45:55.596Z,101153.28
2024-03-06T01:48:26.517Z,101162.78
2024-03-06T01:50:55.999Z,101166.25
2024-03-06T01:53:25.615Z,101156.75
2024-03-06T01:55:53.815Z,101163.63
2024-03-06T01:58:25.055Z,101169.69
2024-03-06T02:00:53.429Z,101169.66
2024-03-06T02:03:23.155Z,101171.38
2024-03-06T02:05:52.782Z,101169.59
2024-03-06T02:08:20.666Z,101169.69
2024-03-06T02:10:48.931Z,101168.84
2024-03-06T02:13:17.050Z,101175.78
2024-03-06T02:15:46.980Z,101171.47
2024-03-06T02:18:15.185Z,101172.38
2024-03-06T02:20:44.648Z,101172.34
2024-03-06T02:23:12.554Z,101174.09
2024-03-06T02:25:40.462Z,101174.06
2024-03-06T02:28:08.309Z,101174.06
2024-03-06T02:30:38.242Z,101172.28
2024-03-06T02:33:07.521Z,101169.75
2024-03-06T02:35:36.176Z,101173.22
2024-03-06T02:38:06.728Z,101168.03
2024-03-06T02:40:35.451Z,101168.94
2024-03-06T02:43:03.755Z,101153.31
2024-03-06T02:45:31.720Z,101161.94
2024-03-06T02:47:59.688Z,101168.81
2024-03-06T02:50:27.645Z,101159.31
2024-03-06T02:52:55.685Z,101173.16
2024-03-06T02:55:25.960Z,101172.28
2024-03-06T02:57:53.808Z,101170.50
2024-03-06T03:00:23.020Z,101166.16
2024-03-06T03:02:50.907Z,101173.94
2024-03-06T03:05:18.797Z,101173.91
2024-03-06T03:07:46.759Z,101177.31
2024-03-06T03:10:14.743Z,101174.69
2024-03-06T03:12:44.150Z,101172.06
2024-03-06T03:15:12.434Z,101171.19
2024-03-06T03:17:40.315Z,101174.63
2024-03-06T03:20:12.448Z,101173.69
2024-03-06T03:22:40.564Z,101175.31
2024-03-06T03:25:10.087Z,101177.84
2024-03-06T03:27:39.211Z,101183.91
2024-03-06T03:30:11.147Z,101177.81
2024-03-06T03:32:39.732Z,101187.34
2024-03-06T03:35:08.294Z,101189.00
2024-03-06T03:37:36.460Z,101193.22
2024-03-06T03:40:04.795Z,101194.06
2024-03-06T03:42:32.872Z,101204.41
2024-03-06T03:45:00.717Z,101206.09
2024-03-06T03:47:29.925Z,101210.38
2024-03-06T03:50:03.715Z,101213.81
2024-03-06T03:52:42.593Z,101225.78
2024-03-06T03:55:11.040Z,101224.91
2024-03-06T03:57:38.941Z,101221.41
2024-03-06T04:00:12.025Z,101230.88
2024-03-06T04:02:42.197Z,101233.41
2024-03-06T04:05:11.799Z,101240.22
2024-03-06T04:07:40.080Z,101243.59
2024-03-06T04:10:11.990Z,101234.94
2024-03-06T04:12:40.889Z,101242.69
2024-03-06T04:15:09.757Z,101237.44
2024-03-06T04:17:37.987Z,101233.94
2024-03-06T04:20:08.918Z,101245.06
2024-03-06T04:22:36.886Z,101247.69
2024-03-06T04:25:06.037Z,101240.75
2024-03-06T04:27:34.196Z,101244.22
2024-03-06T04:30:02.090Z,101245.00
2024-03-06T04:32:29.939Z,101250.09
2024-03-06T04:34:57.855Z,101256.91
2024-03-06T04:37:27.748Z,101250.75
2024-03-06T04:39:55.543Z,101257.59
2024-03-06T04:42:23.370Z,101266.25
2024-03-06T04:44:51.157Z,101268.09
2024-03-06T04:47:20.404Z,101269.84
2024-03-06T04:49:48.218Z,101268.09
2024-03-06T04:52:15.987Z,101270.69
2024-03-06T04:54:49.854Z,101274.91
2024-03-06T04:57:17.918Z,101273.16
2024-03-06T04:59:45.849Z,101286.91
2024-03-06T05:02:13.709Z,101278.16
2024-03-06T06:00:05.797Z,101340.75
2024-03-06T06:02:39.505Z,101341.63
2024-03-06T06:05:22.220Z,101354.56
2024-03-06T06:07:52.389Z,101362.31
2024-03-06T06:10:21.908Z,101353.63
2024-03-06T06:12:50.936Z,101358.75
2024-03-06T06:15:20.368Z,101366.56
2024-03-06T06:17:48.413Z,101368.16
2024-03-06T06:20:17.929Z,101372.56
2024-03-06T06:22:46.144Z,101377.78
2024-03-06T06:25:14.640Z,101364.75
2024-03-06T06:27:42.498Z,101381.16
2024-03-06T06:30:13.238Z,101389.78
2024-03-06T06:32:43.730Z,101398.56
2024-03-06T06:35:12.881Z,101403.69
2024-03-06T06:37:41.216Z,101397.81
2024-03-06T06:40:11.338Z,101402.09
2024-03-06T06:42:39.842Z,101408.97
2024-03-06T06:45:10.668Z,101413.09
2024-03-06T06:47:40.614Z,101411.44
2024-03-06T06:50:10.703Z,101413.97
2024-03-06T06:52:38.610Z,101420.16
2024-03-06T06:55:07.166Z,101421.72
2024-03-06T06:57:35.053Z,101426.09
2024-03-06T07:00:04.411Z,101433.84
2024-03-06T07:02:32.563Z,101426.84
2024-03-06T07:05:00.510Z,101425.91
2024-03-06T07:07:29.798Z,101436.56
2024-03-06T07:09:57.724Z,101436.84
2024-03-06T07:12:26.182Z,101445.56
2024-03-06T07:14:54.029Z,101454.50
2024-03-06T07:17:21.911Z,101442.41
2024-03-06T07:19:50.278Z,101442.44
2024-03-06T07:22:18.502Z,101444.94
2024-03-06T07:24:47.862Z,101452.66
2024-03-06T07:27:15.693Z,101459.44
2024-03-06T07:29:43.569Z,101461.50
2024-03-06T07:32:11.952Z,101472.69
2024-03-06T07:34:39.813Z,101470.19
2024-03-06T07:37:07.618Z,101467.13
2024-03-06T07:39:35.985Z,101459.44
2024-03-06T07:42:05.716Z,101473.84
2024-03-06T07:44:33.621Z,101475.50
2024-03-06T07:47:01.682Z,101479.06
2024-03-06T07:49:29.516Z,101478.19
2024-03-06T07:51:58.177Z,101484.47
2024-03-06T07:54:25.988Z,101489.59
2024-03-06T07:56:54.755Z,101483.53
2024-03-06T07:59:24.073Z,101489.50
2024-03-06T08:01:52.352Z,101493.34
2024-03-06T08:04:20.185Z,101497.59
2024-03-06T08:06:48.004Z,101503.44
2024-03-06T08:09:17.604Z,101491.38
2024-03-06T08:11:45.565Z,101493.34
2024-03-06T08:14:15.898Z,101507.38
2024-03-06T08:16:45.316Z,101510.56
2024-03-06T08:19:13.135Z,101508.72
2024-03-06T08:21:40.954Z,101500.13
2024-03-06T08:24:08.822Z,101497.88
2024-03-06T08:26:36.761Z,101507.09
2024-03-06T08:29:04.679Z,101500.97
2024-03-06T08:31:33.481Z,101504.34
2024-03-06T08:34:03.000Z,101508.53
2024-03-06T08:36:30.965Z,101514.94
2024-03-06T08:38:58.777Z,101513.72
2024-03-06T08:41:26.765Z,101512.13
2024-03-06T08:43:54.584Z,101515.63
2024-03-06T08:46:22.378Z,101509.50
2024-03-06T08:48:50.796Z,101513.66
2024-03-06T08:51:20.014Z,101521.66
2024-03-06T08:53:49.419Z,101529.38
2024-03-06T08:56:17.346Z,101523.28
2024-03-06T08:58:45.228Z,101526.47
2024-03-06T09:01:13.785Z,101528.72
2024-03-06T09:03:41.671Z,101523.13
2024-03-06T09:06:09.759Z,101523.03
2024-03-06T09:08:39.167Z,101524.28
2024-03-06T09:11:07.473Z,101529.00
2024-03-06T09:13:35.342Z,101523.28
2024-03-06T09:16:03.223Z,101527.31
2024-03-06T09:18:31.190Z,101530.13
2024-03-06T09:20:59.205Z,101531.34
2024-03-06T09:23:28.540Z,101533.16
2024-03-06T09:25:57.802Z,101550.81
2024-03-06T09:28:25.692Z,101544.38
2024-03-06T09:30:53.487Z,101539.75
2024-03-06T09:33:21.437Z,101543.28
2024-03-06T09:35:49.461Z,101535.63
2024-03-06T09:38:20.038Z,101545.81
2024-03-06T09:40:50.162Z,101549.19
2024-03-06T09:43:19.460Z,101548.94
2024-03-06T09:45:50.844Z,101556.34
2024-03-06T09:48:21.116Z,101553.00
2024-03-06T09:50:51.391Z,101560.16
2024-03-06T09:53:22.808Z,101564.63
2024-03-06T09:55:52.576Z,101557.00
2024-03-06T09:58:22.361Z,101564.66
2024-03-06T10:00:52.528Z,101563.78
2024-03-06T10:03:21.421Z,101565.50
2024-03-06T10:05:49.368Z,101574.78
2024-03-06T10:08:18.292Z,101575.31
2024-03-06T10:10:47.255Z,101586.34
2024-03-06T10:13:15.296Z,101587.09
2024-03-06T10:15:44.689Z,101583.28
2024-03-06T10:18:14.749Z,101584.81
2024-03-06T10:20:45.853Z,101577.97
2024-03-06T10:23:14.321Z,101579.72
2024-03-06T10:25:45.539Z,101578.50
2024-03-06T10:28:14.159Z,101576.34
2024-03-06T10:30:44.677Z,101590.16
2024-03-06T10:33:13.289Z,101577.22
2024-03-06T10:35:43.078Z,101581.00
2024-03-06T10:38:12.226Z,101586.16
2024-03-06T10:40:41.586Z,101585.00
2024-03-06T10:43:10.635Z,101579.28
2024-03-06T10:45:47.384Z,101573.38
2024-03-06T10:48:16.322Z,101582.84
2024-03-06T10:50:45.941Z,101589.28
2024-03-06T10:53:19.897Z,101582.19
2024-03-06T10:55:52.223Z,101584.19
2024-03-06T10:58:22.027Z,101588.09
2024-03-06T11:00:53.597Z,101587.53
2024-03-06T11:03:21.860Z,101586.28
2024-03-06T11:05:52.350Z,101589.00
2024-03-06T11:08:21.946Z,101579.63
2024-03-06T11:10:50.036Z,101596.66
2024-03-06T11:13:25.723Z,101594.00
2024-03-06T11:15:58.942Z,101597.63
2024-03-06T11:18:45.827Z,101603.69
2024-03-06T11:21:32.883Z,101607.81
2024-03-06T11:24:19.071Z,101602.19
2024-03-06T11:26:50.196Z,101602.13
2024-03-06T11:29:19.791Z,101601.13
2024-03-06T11:32:17.202Z,101597.41
2024-03-06T11:34:45.186Z,101591.72
2024-03-06T11:37:13.128Z,101601.69
2024-03-06T11:39:42.866Z,101602.47
2024-03-06T11:42:11.140Z,101592.25
2024-03-06T11:44:39.243Z,101597.53
2024-03-06T11:47:09.793Z,101591.72
2024-03-06T11:49:39.957Z,101598.97
2024-03-06T11:52:10.787Z,101591.44
2024-03-06T11:54:39.775Z,101594.06
2024-03-06T11:57:07.960Z,101592.38
2024-03-06T11:59:39.200Z,101597.16
2024-03-06T12:02:08.271Z,101592.19
2024-03-06T12:04:39.510Z,101597.69
2024-03-06T12:07:10.551Z,101589.31
2024-03-06T12:09:42.945Z,101603.97
2024-03-06T12:12:13.177Z,101593.78
2024-03-06T12:14:42.267Z,101591.44
2024-03-06T12:17:15.159Z,101591.38
2024-03-06T12:19:45.110Z,101591.47
2024-03-06T12:22:15.616Z,101592.72
2024-03-06T12:24:43.979Z,101600.88
2024-03-06T12:27:13.827Z,101593.59
2024-03-06T12:29:43.083Z,101586.47
2024-03-06T12:32:20.365Z,101585.88
2024-03-06T12:34:59.636Z,101586.38
2024-03-06T12:37:33.423Z,101589.59
2024-03-06T12:40:01.574Z,101590.63
2024-03-06T12:42:29.937Z,101587.00
2024-03-06T12:44:58.286Z,101587.53
2024-03-06T12:47:26.370Z,101589.34
2024-03-06T12:49:54.778Z,101590.22
2024-03-06T12:52:22.641Z,101580.31
2024-03-06T12:54:52.106Z,101573.94
2024-03-06T12:57:19.979Z,101579.38
2024-03-06T12:59:47.899Z,101581.13
2024-03-06T13:02:15.730Z,101583.28
2024-03-06T13:04:43.743Z,101573.44
2024-03-06T13:07:11.671Z,101575.16
2024-03-06T13:09:40.295Z,101578.84
2024-03-06T13:12:10.335Z,101575.28
2024-03-06T13:14:38.339Z,101567.03
2024-03-06T13:17:07.395Z,101568.53
2024-03-06T13:19:35.827Z,101566.38
2024-03-06T13:22:05.894Z,101564.69
2024-03-06T13:24:34.856Z,101570.66
2024-03-06T13:27:02.950Z,101562.06
2024-03-06T13:29:32.269Z,101565.00
2024-03-06T13:32:00.779Z,101563.44
2024-03-06T13:34:28.675Z,101563.34
2024-03-06T13:36:56.987Z,101568.47
2024-03-06T13:39:24.840Z,101567.34
2024-03-06T13:41:53.189Z,101562.78
2024-03-06T13:44:22.400Z,101579.75
2024-03-06T13:46:51.643Z,101567.13
2024-03-06T13:49:37.043Z,101574.69
2024-03-06T13:52:06.187Z,101563.06
2024-03-06T13:54:34.028Z,101570.47
2024-03-06T13:57:03.451Z,101568.56
2024-03-06T13:59:33.396Z,101567.16
2024-03-06T14:02:04.093Z,101565.69
2024-03-06T14:04:33.053Z,101568.59
2024-03-06T14:07:01.150Z,101567.94
2024-03-06T14:09:29.417Z,101566.31
2024-03-06T14:11:57.998Z,101570.03
2024-03-06T14:14:26.024Z,101571.75
2024-03-06T14:16:54.023Z,101571.84
2024-03-06T14:19:23.499Z,101567.06
2024-03-06T14:21:51.454Z,101566.78
2024-03-06T14:24:19.671Z,101568.16
2024-03-06T14:26:47.518Z,101568.44
2024-03-06T14:29:16.785Z,101574.09
2024-03-06T14:31:44.679Z,101575.94
2024-03-06T14:34:12.528Z,101571.06
2024-03-06T14:36:43.454Z,101573.50
2024-03-06T14:39:12.400Z,101577.31
2024-03-06T14:41:40.319Z,101571.28
2024-03-06T14:44:08.290Z,101569.78
2024-03-06T14:46:36.293Z,101574.59
2024-03-06T14:49:05.169Z,101568.53
2024-03-06T14:51:33.032Z,101572.22
2024-03-06T14:54:02.532Z,101571.25
2024-03-06T14:56:32.044Z,101562.91
2024-03-06T14:59:00.307Z,101563.53
2024-03-06T15:01:28.254Z,101567.72
2024-03-06T15:03:56.831Z,101559.50
2024-03-06T15:06:25.028Z,101558.59
2024-03-06T15:08:52.965Z,101557.84
2024-03-06T15:11:24.409Z,101566.72
2024-03-06T15:13:52.636Z,101571.41
2024-03-06T15:16:20.520Z,101577.69
2024-03-06T15:18:49.914Z,101575.88
2024-03-06T15:21:18.212Z,101583.25
2024-03-06T15:23:46.242Z,101577.47
2024-03-06T15:26:14.268Z,101574.47
2024-03-06T15:28:43.496Z,101584.72
2024-03-06T15:31:11.518Z,101574.69
2024-03-06T15:33:39.419Z,101580.97
2024-03-06T15:36:07.639Z,101584.63
2024-03-06T15:38:35.564Z,101582.44
2024-03-06T15:41:03.719Z,101576.16
2024-03-06T15:43:31.647Z,101579.78
2024-03-06T15:46:00.912Z,101573.84
2024-03-06T15:48:29.918Z,101572.00
2024-03-06T15:50:58.214Z,101584.03
2024-03-06T15:53:29.417Z,101579.31
2024-03-06T15:55:57.844Z,101580.81
2024-03-06T15:58:26.535Z,101590.28
2024-03-06T16:00:59.382Z,101586.41
2024-03-06T16:03:31.043Z,101585.16
2024-03-06T16:06:07.276Z,101591.22
2024-03-06T16:08:43.781Z,101591.13
2024-03-06T16:11:12.051Z,101594.28
2024-03-06T16:13:40.275Z,101597.13
2024-03-06T16:16:09.406Z,101597.97
2024-03-06T16:18:38.643Z,101596.28
2024-03-06T16:21:07.868Z,101598.31
2024-03-06T16:23:35.770Z,101600.41
2024-03-06T16:26:03.800Z,101599.81
2024-03-06T16:28:31.704Z,101599.78
2024-03-06T16:30:59.525Z,101604.19
2024-03-06T16:33:27.438Z,101604.44
2024-03-06T16:35:56.786Z,101610.31
2024-03-06T16:38:24.753Z,101611.56
2024-03-06T16:40:52.598Z,101608.88
2024-03-06T16:43:20.495Z,101615.03
2024-03-06T16:45:49.029Z,101611.38
2024-03-06T16:48:17.059Z,101620.13
2024-03-06T16:50:45.033Z,101615.75
2024-03-06T16:53:15.232Z,101625.47
2024-03-06T16:55:43.944Z,101631.78
2024-03-06T16:58:12.097Z,101627.38
2024-03-06T17:00:40.060Z,101630.97
2024-03-06T17:03:08.254Z,101629.94
2024-03-06T17:06:01.627Z,101631.72
2024-03-06T17:08:30.865Z,101630.13
2024-03-06T17:10:59.205Z,101636.25
2024-03-06T17:13:27.136Z,101635.38
2024-03-06T17:15:55.925Z,101634.69
2024-03-06T17:18:23.989Z,101635.53
2024-03-06T17:20:52.374Z,101651.28
2024-03-06T17:23:20.398Z,101647.69
2024-03-06T17:25:49.744Z,101638.94
2024-03-06T17:28:18.412Z,101647.72
2024-03-06T17:30:47.272Z,101650.31
2024-03-06T17:33:17.536Z,101647.72
2024-03-06T17:35:46.728Z,101652.97
2024-03-06T17:38:15.158Z,101647.06
2024-03-06T17:40:44.415Z,101657.53
2024-03-06T17:43:14.263Z,101655.78
2024-03-06T17:45:42.306Z,101654.97
2024-03-06T17:48:10.767Z,101660.28
2024-03-06T17:50:38.784Z,101664.66
2024-03-06T17:53:08.422Z,101665.69
2024-03-06T17:55:36.445Z,101659.59
2024-03-06T17:58:06.189Z,101668.31
2024-03-06T18:00:36.345Z,101669.19
2024-03-06T18:03:04.997Z,101672.75
2024-03-06T18:05:33.063Z,101671.03
2024-03-06T18:08:01.089Z,101671.03
2024-03-06T18:10:28.976Z,101682.41
2024-03-06T18:12:56.802Z,101679.81
2024-03-06T18:15:24.781Z,101680.72
2024-03-06T18:17:54.452Z,101679.81
2024-03-06T18:20:22.973Z,101685.13
2024-03-06T18:22:50.876Z,101675.59
2024-03-06T18:25:18.980Z,101676.44
2024-03-06T18:27:46.938Z,101683.44
2024-03-06T18:30:15.768Z,101678.22
2024-03-06T18:32:43.757Z,101682.66
2024-03-06T18:35:13.154Z,101682.69
2024-03-06T18:37:41.030Z,101679.19
2024-03-06T18:40:09.756Z,101685.34
2024-03-06T18:42:37.596Z,101690.59
2024-03-06T18:45:06.226Z,101694.97
2024-03-06T18:47:34.383Z,101696.69
2024-03-06T18:50:04.856Z,101697.59
2024-03-06T18:52:35.258Z,101696.72
2024-03-06T18:55:03.819Z,101700.25
2024-03-06T18:57:31.692Z,101706.34
2024-03-06T18:59:59.588Z,101698.47
2024-03-06T19:02:27.453Z,101702.84
2024-03-06T19:04:55.497Z,101707.22
2024-03-06T19:07:23.649Z,101706.34
2024-03-06T19:09:53.135Z,101707.19
2024-03-06T19:12:21.079Z,101715.00
2024-03-06T19:14:49.248Z,101709.78
2024-03-06T19:17:17.365Z,101710.66
2024-03-06T19:19:45.572Z,101708.03
2024-03-06T19:22:15.435Z,101713.28
2024-03-06T19:24:44.155Z,101708.91
2024-03-06T19:27:13.431Z,101711.53
2024-03-06T19:29:41.435Z,101715.03
2024-03-06T19:32:11.499Z,101719.34
2024-03-06T19:34:39.684Z,101725.44
2024-03-06T19:37:07.629Z,101723.69
2024-03-06T19:39:36.211Z,101721.06
2024-03-06T19:42:06.573Z,101724.53
2024-03-06T19:44:36.036Z,101721.06
2024-03-06T19:47:05.261Z,101725.41
2024-03-06T19:49:35.027Z,101721.03
2024-03-06T19:52:03.620Z,101726.25
2024-03-06T19:54:33.232Z,101727.03
2024-03-06T19:57:03.636Z,101727.91
2024-03-06T19:59:31.783Z,101730.50
2024-03-06T20:02:01.536Z,101731.38
2024-03-06T20:04:29.448Z,101734.81
2024-03-06T20:06:57.398Z,101730.38
2024-03-06T20:09:26.509Z,101728.69
2024-03-06T20:11:55.513Z,101738.28
2024-03-06T20:14:23.569Z,101730.38
2024-03-06T20:16:51.557Z,101729.47
2024-03-06T20:19:21.419Z,101724.22
2024-03-06T20:21:49.634Z,101725.13
2024-03-06T20:24:17.829Z,101725.09
2024-03-06T20:26:46.058Z,101745.13
2024-03-06T20:29:14.444Z,101731.25
2024-03-06T20:31:47.011Z,101734.66
2024-03-06T20:34:17.405Z,101741.53
2024-03-06T20:36:46.855Z,101740.69
2024-03-06T20:39:16.614Z,101745.00
2024-03-06T20:41:45.197Z,101757.09
2024-03-06T20:44:14.141Z,101753.59
2024-03-06T20:46:42.326Z,101748.38
2024-03-06T20:49:10.252Z,101751.88
2024-03-06T20:51:38.393Z,101739.69
2024-03-06T20:54:07.594Z,101750.13
2024-03-06T20:56:35.493Z,101746.59
2024-03-06T20:59:03.369Z,101743.91
2024-03-06T21:01:31.602Z,101744.81
2024-03-06T21:03:59.539Z,101745.56
2024-03-06T21:06:27.700Z,101749.13
2024-03-06T21:08:55.699Z,101743.81
2024-03-06T21:11:27.145Z,101742.91
2024-03-06T21:13:57.784Z,101742.81
2024-03-06T21:16:26.064Z,101749.75
2024-03-06T21:18:53.970Z,101743.56
2024-03-06T21:21:21.813Z,101750.53
2024-03-06T21:23:50.201Z,101745.38
2024-03-06T21:26:18.221Z,101753.16
2024-03-06T21:28:47.951Z,101754.00
2024-03-06T21:31:15.866Z,101749.66
2024-03-06T21:33:44.589Z,101753.09
2024-03-06T21:36:12.482Z,101760.09
2024-03-06T21:38:40.431Z,101753.88
2024-03-06T21:41:08.365Z,101762.44
2024-03-06T21:43:36.256Z,101758.06
2024-03-06T21:46:05.629Z,101762.31
2024-03-06T21:48:33.678Z,101763.13
2024-03-06T21:51:01.717Z,101770.03
2024-03-06T21:53:29.757Z,101765.63
2024-03-06T21:55:57.672Z,101764.78
2024-03-06T21:58:26.307Z,101769.09
2024-03-06T22:00:54.171Z,101770.84
2024-03-06T22:03:23.952Z,101766.41
2024-03-06T22:05:52.011Z,101765.50
2024-03-06T22:08:19.977Z,101765.47
2024-03-06T22:10:47.880Z,101767.22
2024-03-06T22:13:16.026Z,101763.63
2024-03-06T22:15:43.927Z,101770.59
2024-03-06T22:18:12.113Z,101767.16
2024-03-06T22:20:42.182Z,101767.97
2024-03-06T22:23:10.124Z,101769.72
2024-03-06T22:25:38.084Z,101772.25
2024-03-06T22:28:06.672Z,101773.13
2024-03-06T22:30:34.616Z,101770.47
2024-03-06T22:33:02.592Z,101776.56
2024-03-06T22:35:30.542Z,101764.41
2024-03-06T22:37:59.858Z,101767.72
2024-03-06T22:40:28.048Z,101775.59
2024-03-06T22:42:55.912Z,101778.22
2024-03-06T22:45:25.527Z,101776.41
2024-03-06T22:47:54.525Z,101782.41
2024-03-06T22:50:22.543Z,101784.94
2024-03-06T22:52:50.395Z,101784.81
2024-03-06T22:55:19.749Z,101785.66
2024-03-06T22:57:47.646Z,101779.44
2024-03-06T23:00:29.567Z,101781.88
2024-03-06T23:02:58.100Z,101786.94
2024-03-06T23:05:26.551Z,101781.66
2024-03-06T23:07:55.116Z,101784.97
2024-03-06T23:10:24.509Z,101784.03
2024-03-06T23:12:52.425Z,101781.28
2024-03-06T23:15:20.976Z,101784.63
2024-03-06T23:17:49.634Z,101785.50
2024-03-06T23:20:18.480Z,101791.53
2024-03-06T23:22:47.278Z,101785.41
2024-03-06T23:25:15.915Z,101788.84
2024-03-06T23:27:46.986Z,101789.66
2024-03-06T23:30:17.152Z,101784.31
2024-03-06T23:32:46.237Z,101791.94
2024-03-06T23:35:15.748Z,101786.66
2024-03-06T23:37:44.427Z,101790.03
2024-03-06T23:40:15.118Z,101790.91
2024-03-06T23:42:45.694Z,101789.16
2024-03-06T23:45:15.316Z,101787.38
2024-03-06T23:47:45.841Z,101788.22
2024-03-06T23:50:14.787Z,101794.28
2024-03-06T23:52:42.706Z,101791.78
2024-03-06T23:55:11.994Z,101791.91
2024-03-06T23:57:40.216Z,101786.81
